Time;durP1;ratioP1;P1;durP2;ratioP2;P2;SDS_P1;SDS_P2;PMS_P1;PMS_P2;Temp;Humidity;BMP_temperature;BMP_pressure;BME280_temperature;BME280_humidity;BME280_pressure;Samples;Min_cycle;Max_cycle;Signal;HPM_P1;HPM_P2
2021/01/30 00:00:29;;;;;;;21.02;11.32;;;;;;;;;;5135846;27;20026;-73
2021/01/30 00:02:54;;;;;;;20.75;11.05;;;;;;;;;;5133721;27;20347;-73
2021/01/30 00:05:20;;;;;;;18.33;11.98;;;;;;;;;;5123831;27;20344;-73
2021/01/30 00:07:45;;;;;;;22.80;12.80;;;;;;;;;;5140500;27;20091;-72
2021/01/30 00:10:11;;;;;;;18.43;12.07;;;;;;;;;;5133570;27;20022;-73
2021/01/30 00:12:39;;;;;;;30.40;13.13;;;;;;;;;;5126907;27;20024;-73
2021/01/30 00:15:05;;;;;;;20.88;11.75;;;;;;;;;;5134221;27;20018;-73
2021/01/30 00:17:30;;;;;;;22.13;10.48;;;;;;;;;;5140348;27;20103;-73
2021/01/30 00:19:58;;;;;;;20.10;12.33;;;;;;;;;;5131170;27;20030;-73
2021/01/30 00:22:24;;;;;;;16.52;9.25;;;;;;;;;;5125855;27;20031;-73
2021/01/30 00:24:49;;;;;;;16.27;10.77;;;;;;;;;;5128396;27;20015;-73
2021/01/30 00:27:16;;;;;;;17.93;10.50;;;;;;;;;;5116915;27;20031;-73
2021/01/30 00:29:41;;;;;;;10.70;9.55;;;;;;;;;;5139511;27;20019;-73
2021/01/30 00:32:07;;;;;;;14.93;9.03;;;;;;;;;;5143412;27;20118;-73
2021/01/30 00:34:33;;;;;;;15.18;9.55;;;;;;;;;;5138906;27;20018;-73
2021/01/30 00:37:05;;;;;;;15.23;9.02;;;;;;;;;;5141032;27;20027;-74
2021/01/30 00:39:31;;;;;;;11.90;7.70;;;;;;;;;;5138531;27;20019;-72
2021/01/30 00:41:56;;;;;;;16.00;7.10;;;;;;;;;;5127819;27;20027;-73
2021/01/30 00:44:21;;;;;;;14.93;6.50;;;;;;;;;;5136034;27;20112;-73
2021/01/30 00:46:48;;;;;;;14.77;5.93;;;;;;;;;;5131953;27;20089;-73
2021/01/30 00:49:13;;;;;;;;;;;;;;;;;;5131277;27;20224;-73
2021/01/30 00:51:38;;;;;;;8.70;5.28;;;;;;;;;;5130108;27;19908;-73
2021/01/30 00:54:03;;;;;;;8.23;5.30;;;;;;;;;;5131414;27;20031;-73
2021/01/30 00:56:28;;;;;;;9.53;4.93;;;;;;;;;;5122410;27;20019;-73
2021/01/30 00:58:54;;;;;;;8.17;4.90;;;;;;;;;;5138387;27;20011;-73
2021/01/30 01:01:19;;;;;;;7.77;4.80;;;;;;;;;;5128741;27;20061;-73
2021/01/30 01:03:44;;;;;;;13.63;4.70;;;;;;;;;;5131273;27;20392;-73
2021/01/30 01:06:12;;;;;;;9.47;4.53;;;;;;;;;;5126137;27;20012;-73
2021/01/30 01:08:37;;;;;;;8.10;3.88;;;;;;;;;;5121208;27;20416;-73
2021/01/30 01:11:03;;;;;;;8.20;4.53;;;;;;;;;;5136105;27;20072;-73
2021/01/30 01:13:28;;;;;;;5.93;3.93;;;;;;;;;;5137235;27;20320;-73
2021/01/30 01:15:54;;;;;;;8.37;4.17;;;;;;;;;;5140538;27;20053;-73
2021/01/30 01:18:19;;;;;;;7.25;4.45;;;;;;;;;;5146942;27;20019;-73
2021/01/30 01:20:44;;;;;;;11.70;4.80;;;;;;;;;;5135476;27;20015;-73
2021/01/30 01:23:10;;;;;;;11.43;5.43;;;;;;;;;;5129529;27;20019;-73
2021/01/30 01:25:35;;;;;;;7.70;4.73;;;;;;;;;;5136023;27;20443;-73
2021/01/30 01:28:07;;;;;;;8.93;4.83;;;;;;;;;;5145769;27;20374;-73
2021/01/30 01:30:32;;;;;;;8.20;4.90;;;;;;;;;;5133633;27;20029;-73
2021/01/30 01:32:57;;;;;;;5.87;4.10;;;;;;;;;;5145926;27;20315;-73
2021/01/30 01:35:28;;;;;;;6.80;4.20;;;;;;;;;;5136170;27;20461;-73
2021/01/30 01:37:59;;;;;;;7.32;4.72;;;;;;;;;;5130360;27;20027;-73
2021/01/30 01:40:27;;;;;;;7.95;4.03;;;;;;;;;;5132969;27;20054;-73
2021/01/30 01:42:59;;;;;;;8.65;4.28;;;;;;;;;;5133497;27;20068;-73
2021/01/30 01:45:24;;;;;;;9.35;4.38;;;;;;;;;;5123078;27;20047;-73
2021/01/30 01:47:50;;;;;;;5.83;4.20;;;;;;;;;;5134868;27;20045;-73
2021/01/30 01:50:18;;;;;;;8.27;4.77;;;;;;;;;;5132202;27;20103;-73
2021/01/30 01:52:43;;;;;;;8.57;5.10;;;;;;;;;;5132938;27;20019;-73
2021/01/30 01:55:13;;;;;;;6.77;4.40;;;;;;;;;;5130127;27;20061;-73
2021/01/30 01:57:40;;;;;;;5.40;4.15;;;;;;;;;;5147940;27;20022;-73
2021/01/30 02:00:06;;;;;;;5.53;4.45;;;;;;;;;;5139606;27;20106;-73
2021/01/30 02:02:37;;;;;;;8.37;5.03;;;;;;;;;;5134138;27;20119;-73
2021/01/30 02:05:05;;;;;;;9.23;4.88;;;;;;;;;;5130628;27;20065;-73
2021/01/30 02:07:31;;;;;;;5.70;4.30;;;;;;;;;;5136082;27;20046;-73
2021/01/30 02:09:58;;;;;;;8.73;5.10;;;;;;;;;;5118262;27;20023;-73
2021/01/30 02:12:25;;;;;;;6.03;4.60;;;;;;;;;;5137073;27;20027;-73
2021/01/30 02:14:52;;;;;;;7.57;4.88;;;;;;;;;;5144739;27;20018;-73
2021/01/30 02:17:33;;;;;;;5.50;4.88;;;;;;;;;;5134888;27;20065;-73
2021/01/30 02:20:08;;;;;;;6.47;5.32;;;;;;;;;;5141968;27;20308;-73
2021/01/30 02:22:36;;;;;;;8.35;6.05;;;;;;;;;;5138380;27;20365;-73
2021/01/30 02:25:04;;;;;;;9.00;6.32;;;;;;;;;;5133227;27;20061;-73
2021/01/30 02:27:48;;;;;;;10.13;7.00;;;;;;;;;;5141037;27;20030;-73
2021/01/30 02:30:29;;;;;;;9.75;7.60;;;;;;;;;;5132946;27;20038;-73
2021/01/30 02:33:12;;;;;;;10.13;7.55;;;;;;;;;;5137556;27;20064;-73
2021/01/30 02:35:48;;;;;;;8.93;8.00;;;;;;;;;;5106069;28;20035;-73
2021/01/30 02:38:17;;;;;;;11.38;9.00;;;;;;;;;;5113681;27;20038;-73
2021/01/30 02:40:43;;;;;;;11.10;10.00;;;;;;;;;;5116241;27;20065;-73
2021/01/30 02:43:13;;;;;;;14.75;13.27;;;;;;;;;;5125590;27;20085;-73
2021/01/30 02:45:43;;;;;;;16.27;12.80;;;;;;;;;;5128366;27;20030;-73
2021/01/30 02:48:11;;;;;;;14.93;13.32;;;;;;;;;;5136481;27;20019;-73
2021/01/30 02:50:45;;;;;;;15.82;14.23;;;;;;;;;;5111798;27;20019;-73
2021/01/30 02:53:13;;;;;;;15.63;14.02;;;;;;;;;;5114900;27;20500;-73
2021/01/30 02:55:39;;;;;;;15.32;13.82;;;;;;;;;;5142669;27;20030;-73
2021/01/30 02:58:05;;;;;;;19.77;14.57;;;;;;;;;;5144008;27;20018;-73
2021/01/30 03:00:31;;;;;;;16.30;14.57;;;;;;;;;;5124089;27;20022;-73
2021/01/30 03:02:56;;;;;;;17.15;15.43;;;;;;;;;;5141400;27;20092;-73
2021/01/30 03:05:21;;;;;;;15.97;14.33;;;;;;;;;;5139894;27;20026;-73
2021/01/30 03:07:52;;;;;;;16.92;15.23;;;;;;;;;;5136436;27;20067;-73
2021/01/30 03:10:24;;;;;;;17.88;15.98;;;;;;;;;;5138072;27;20097;-73
2021/01/30 03:13:06;;;;;;;18.48;16.48;;;;;;;;;;5136053;27;20063;-73
2021/01/30 03:15:31;;;;;;;18.58;16.30;;;;;;;;;;5124671;27;20015;-73
2021/01/30 03:17:57;;;;;;;18.67;16.80;;;;;;;;;;5148469;27;20412;-73
2021/01/30 03:20:22;;;;;;;19.65;17.63;;;;;;;;;;5136630;27;20023;-73
2021/01/30 03:22:48;;;;;;;24.70;20.47;;;;;;;;;;5136084;28;20030;-73
2021/01/30 03:25:19;;;;;;;21.38;19.17;;;;;;;;;;5116959;28;20031;-73
2021/01/30 03:27:44;;;;;;;21.35;19.05;;;;;;;;;;5146901;27;20071;-73
2021/01/30 03:30:10;;;;;;;21.13;18.70;;;;;;;;;;5141566;27;20463;-73
2021/01/30 03:32:35;;;;;;;24.05;20.08;;;;;;;;;;5146162;27;20424;-73
2021/01/30 03:35:01;;;;;;;20.60;18.40;;;;;;;;;;5150114;27;20019;-73
2021/01/30 03:37:26;;;;;;;21.37;19.07;;;;;;;;;;5152052;27;20034;-73
2021/01/30 03:39:52;;;;;;;21.92;19.63;;;;;;;;;;5149462;27;20076;-73
2021/01/30 03:42:17;;;;;;;22.87;20.27;;;;;;;;;;5132400;27;20379;-73
2021/01/30 03:44:42;;;;;;;22.93;20.43;;;;;;;;;;5140858;27;20016;-73
2021/01/30 03:47:07;;;;;;;21.67;19.10;;;;;;;;;;5124619;27;20028;-73
2021/01/30 03:49:33;;;;;;;21.40;19.13;;;;;;;;;;5125213;27;20117;-72
2021/01/30 03:51:58;;;;;;;23.03;20.27;;;;;;;;;;5138995;27;20055;-73
2021/01/30 03:54:23;;;;;;;21.67;17.60;;;;;;;;;;5122035;27;20034;-73
2021/01/30 03:56:48;;;;;;;19.93;17.83;;;;;;;;;;5149885;27;20019;-73
2021/01/30 03:59:14;;;;;;;16.33;14.63;;;;;;;;;;5142579;27;20019;-73
2021/01/30 04:01:40;;;;;;;19.83;17.80;;;;;;;;;;5144497;27;20026;-73
2021/01/30 04:04:05;;;;;;;19.57;17.57;;;;;;;;;;5128420;27;20077;-73
2021/01/30 04:06:30;;;;;;;18.30;16.47;;;;;;;;;;5138629;27;20308;-72
2021/01/30 04:08:55;;;;;;;19.03;17.03;;;;;;;;;;5135092;27;20435;-73
2021/01/30 04:11:25;;;;;;;17.73;15.90;;;;;;;;;;5140390;27;20018;-73
2021/01/30 04:13:50;;;;;;;17.77;15.88;;;;;;;;;;5145441;27;20035;-73
2021/01/30 04:16:16;;;;;;;15.93;14.25;;;;;;;;;;5137806;27;20023;-73
2021/01/30 04:18:41;;;;;;;17.87;16.07;;;;;;;;;;5140709;27;20027;-73
2021/01/30 04:21:06;;;;;;;16.10;14.47;;;;;;;;;;5138496;27;20076;-72
2021/01/30 04:23:31;;;;;;;19.70;15.93;;;;;;;;;;5139656;27;20093;-72
2021/01/30 04:25:56;;;;;;;16.77;15.07;;;;;;;;;;5134669;27;20428;-72
2021/01/30 04:28:21;;;;;;;16.93;15.23;;;;;;;;;;5144230;27;20023;-72
2021/01/30 04:30:47;;;;;;;17.13;15.33;;;;;;;;;;5150544;27;20207;-72
2021/01/30 04:33:12;;;;;;;16.57;14.83;;;;;;;;;;5144150;27;20213;-72
2021/01/30 04:35:37;;;;;;;15.67;14.10;;;;;;;;;;5138065;27;20021;-72
2021/01/30 04:38:03;;;;;;;16.27;14.57;;;;;;;;;;5138193;27;20033;-72
2021/01/30 04:40:29;;;;;;;;;;;;;;;;;;5138658;27;20023;-72
2021/01/30 04:43:01;;;;;;;16.42;14.70;;;;;;;;;;5147053;27;19910;-72
2021/01/30 04:45:42;;;;;;;15.98;14.38;;;;;;;;;;5138446;27;20308;-72
2021/01/30 04:48:10;;;;;;;18.42;15.52;;;;;;;;;;5147260;27;20023;-72
2021/01/30 04:50:40;;;;;;;15.80;14.25;;;;;;;;;;5150609;27;20050;-72
2021/01/30 04:53:23;;;;;;;18.85;16.13;;;;;;;;;;5141436;27;20067;-72
2021/01/30 04:56:05;;;;;;;18.00;16.10;;;;;;;;;;5136111;27;20685;-72
2021/01/30 04:58:50;;;;;;;16.77;15.07;;;;;;;;;;5123580;27;20088;-72
2021/01/30 05:01:38;;;;;;;17.00;15.20;;;;;;;;;;5136087;27;20053;-72
2021/01/30 05:04:22;;;;;;;18.00;16.10;;;;;;;;;;5137645;27;20416;-72
2021/01/30 05:06:58;;;;;;;17.13;15.13;;;;;;;;;;5130324;27;20027;-73
2021/01/30 05:09:38;;;;;;;16.85;15.05;;;;;;;;;;5134458;27;20031;-72
2021/01/30 05:12:12;;;;;;;17.20;15.50;;;;;;;;;;5145850;27;20015;-72
2021/01/30 05:14:46;;;;;;;16.67;14.88;;;;;;;;;;5138976;27;20050;-72
2021/01/30 05:17:17;;;;;;;17.05;14.70;;;;;;;;;;5121908;27;20019;-72
2021/01/30 05:19:43;;;;;;;15.25;13.52;;;;;;;;;;5133730;27;20024;-72
2021/01/30 05:22:11;;;;;;;15.02;13.52;;;;;;;;;;5130620;27;20460;-72
2021/01/30 05:24:36;;;;;;;16.20;14.52;;;;;;;;;;5144304;27;20037;-72
2021/01/30 05:27:27;;;;;;;14.20;12.67;;;;;;;;;;5138171;27;20015;-72
2021/01/30 05:29:56;;;;;;;15.18;13.70;;;;;;;;;;5126391;27;20060;-72
2021/01/30 05:32:23;;;;;;;14.32;12.82;;;;;;;;;;5139285;27;20408;-72
2021/01/30 05:34:54;;;;;;;13.77;12.30;;;;;;;;;;5120024;27;20019;-72
2021/01/30 05:37:26;;;;;;;13.73;12.32;;;;;;;;;;5138619;27;20408;-72
2021/01/30 05:40:10;;;;;;;14.80;13.25;;;;;;;;;;5133960;27;20023;-72
2021/01/30 05:42:38;;;;;;;15.75;13.52;;;;;;;;;;5139047;27;20058;-72
2021/01/30 05:45:09;;;;;;;15.27;13.68;;;;;;;;;;5138072;27;20098;-72
2021/01/30 05:47:35;;;;;;;16.00;14.27;;;;;;;;;;5136109;27;20026;-72
2021/01/30 05:50:07;;;;;;;15.73;13.77;;;;;;;;;;5137907;27;20022;-72
2021/01/30 05:52:33;;;;;;;15.95;14.27;;;;;;;;;;5136087;27;20015;-72
2021/01/30 05:54:59;;;;;;;14.55;13.15;;;;;;;;;;5146982;27;20018;-72
2021/01/30 05:57:24;;;;;;;14.70;12.63;;;;;;;;;;5147264;27;20018;-72
2021/01/30 05:59:54;;;;;;;13.97;12.53;;;;;;;;;;5113361;27;20034;-73
2021/01/30 06:02:21;;;;;;;14.63;13.02;;;;;;;;;;5139084;27;20051;-72
2021/01/30 06:04:47;;;;;;;15.13;13.50;;;;;;;;;;5138325;27;20046;-72
2021/01/30 06:07:30;;;;;;;16.07;14.07;;;;;;;;;;5137214;27;20042;-72
2021/01/30 06:09:57;;;;;;;13.95;12.50;;;;;;;;;;5122748;27;20056;-72
2021/01/30 06:12:30;;;;;;;14.35;12.85;;;;;;;;;;5140752;27;20030;-72
2021/01/30 06:15:07;;;;;;;14.88;13.38;;;;;;;;;;5137900;27;20080;-72
2021/01/30 06:17:32;;;;;;;14.38;12.90;;;;;;;;;;5122738;27;20301;-72
2021/01/30 06:19:59;;;;;;;13.90;12.52;;;;;;;;;;5154983;27;20030;-73
2021/01/30 06:22:27;;;;;;;14.30;12.80;;;;;;;;;;5136170;27;20434;-73
2021/01/30 06:24:52;;;;;;;14.93;13.32;;;;;;;;;;5135773;27;20312;-73
2021/01/30 06:27:26;;;;;;;15.07;13.47;;;;;;;;;;5121239;27;20180;-73
2021/01/30 06:29:53;;;;;;;13.05;11.70;;;;;;;;;;5138732;27;20112;-73
2021/01/30 06:32:18;;;;;;;14.73;13.23;;;;;;;;;;5124288;27;20057;-72
2021/01/30 06:34:44;;;;;;;13.47;12.07;;;;;;;;;;5131553;27;20096;-73
2021/01/30 06:37:13;;;;;;;14.98;13.40;;;;;;;;;;5128237;27;20027;-73
2021/01/30 06:39:40;;;;;;;15.10;13.50;;;;;;;;;;5147407;27;20014;-71
2021/01/30 06:42:05;;;;;;;;;;;;;;;;;;5136131;27;20465;-71
2021/01/30 06:44:33;;;;;;;14.32;12.90;;;;;;;;;;5137623;27;20296;-71
2021/01/30 06:47:18;;;;;;;15.38;13.77;;;;;;;;;;5129380;27;20082;-71
2021/01/30 06:49:51;;;;;;;17.52;14.07;;;;;;;;;;5132178;27;20075;-71
2021/01/30 06:52:24;;;;;;;15.68;13.32;;;;;;;;;;5130253;27;20324;-71
2021/01/30 06:55:05;;;;;;;14.98;13.48;;;;;;;;;;5129745;27;20122;-71
2021/01/30 06:57:32;;;;;;;16.70;14.27;;;;;;;;;;5127797;27;20048;-71
2021/01/30 07:00:00;;;;;;;14.63;12.73;;;;;;;;;;5135999;27;20016;-71
2021/01/30 07:02:45;;;;;;;14.20;12.77;;;;;;;;;;5144069;27;20424;-71
2021/01/30 07:05:23;;;;;;;13.05;11.65;;;;;;;;;;5107473;27;20029;-71
2021/01/30 07:07:54;;;;;;;13.07;11.77;;;;;;;;;;5107879;27;20324;-72
2021/01/30 07:10:29;;;;;;;12.80;11.25;;;;;;;;;;5135662;27;20025;-72
2021/01/30 07:13:12;;;;;;;12.75;11.45;;;;;;;;;;5141531;27;20030;-71
2021/01/30 07:15:42;;;;;;;13.80;11.23;;;;;;;;;;5134744;27;20312;-71
2021/01/30 07:18:10;;;;;;;11.68;10.52;;;;;;;;;;5112688;28;20103;-71
2021/01/30 07:20:52;;;;;;;11.85;10.65;;;;;;;;;;5113065;27;20019;-73
2021/01/30 07:23:33;;;;;;;13.18;11.38;;;;;;;;;;5130489;27;20023;-73
2021/01/30 07:26:11;;;;;;;12.45;11.15;;;;;;;;;;5138559;27;20019;-73
2021/01/30 07:28:39;;;;;;;11.95;10.15;;;;;;;;;;5129032;27;20015;-73
2021/01/30 07:31:07;;;;;;;11.43;10.23;;;;;;;;;;5130257;27;20016;-74
2021/01/30 07:33:47;;;;;;;11.73;10.55;;;;;;;;;;5129317;27;20184;-73
2021/01/30 07:36:21;;;;;;;13.18;11.77;;;;;;;;;;5145992;27;20023;-73
2021/01/30 07:39:05;;;;;;;12.75;10.80;;;;;;;;;;5109059;27;20363;-73
2021/01/30 07:41:54;;;;;;;13.60;10.55;;;;;;;;;;5129687;27;20094;-73
2021/01/30 07:44:38;;;;;;;12.02;10.82;;;;;;;;;;5023113;28;20163;-73
2021/01/30 07:47:15;;;;;;;11.73;10.52;;;;;;;;;;5025626;28;20034;-73
2021/01/30 07:49:43;;;;;;;13.40;11.93;;;;;;;;;;5022509;28;20041;-73
2021/01/30 07:52:10;;;;;;;12.50;11.20;;;;;;;;;;5026909;28;20037;-73
2021/01/30 07:54:43;;;;;;;12.55;11.35;;;;;;;;;;5028074;28;20033;-73
2021/01/30 07:57:31;;;;;;;12.43;11.13;;;;;;;;;;5024689;28;20059;-74
2021/01/30 08:00:03;;;;;;;12.82;11.50;;;;;;;;;;5013861;28;20045;-73
2021/01/30 08:02:38;;;;;;;11.60;10.40;;;;;;;;;;5029493;28;20053;-73
2021/01/30 08:05:14;;;;;;;12.10;10.90;;;;;;;;;;5015062;28;20113;-73
2021/01/30 08:07:53;;;;;;;12.30;11.10;;;;;;;;;;5021026;28;20117;-73
2021/01/30 08:10:31;;;;;;;13.80;11.40;;;;;;;;;;5028843;28;20026;-73
2021/01/30 08:13:11;;;;;;;13.25;11.85;;;;;;;;;;5030397;28;20017;-73
2021/01/30 08:15:39;;;;;;;12.02;10.82;;;;;;;;;;5025312;28;20089;-73
2021/01/30 08:18:16;;;;;;;12.48;11.18;;;;;;;;;;5017342;28;20470;-73
2021/01/30 08:20:45;;;;;;;12.25;11.05;;;;;;;;;;5033889;28;20123;-73
2021/01/30 08:23:29;;;;;;;11.93;10.27;;;;;;;;;;5119588;27;20107;-73
2021/01/30 08:26:17;;;;;;;10.75;9.65;;;;;;;;;;5125830;27;20020;-73
2021/01/30 08:28:49;;;;;;;11.52;9.68;;;;;;;;;;5057046;28;20033;-73
2021/01/30 08:31:34;;;;;;;10.70;9.60;;;;;;;;;;5056577;28;20036;-73
2021/01/30 08:34:07;;;;;;;12.48;9.98;;;;;;;;;;5056666;28;20033;-73
2021/01/30 08:36:35;;;;;;;10.80;9.70;;;;;;;;;;5056755;28;20132;-73
2021/01/30 08:39:07;;;;;;;9.77;8.75;;;;;;;;;;5058010;28;20414;-73
2021/01/30 08:41:40;;;;;;;10.98;9.88;;;;;;;;;;5056551;28;20436;-72
2021/01/30 08:44:06;;;;;;;10.38;8.98;;;;;;;;;;5056846;28;20043;-73
2021/01/30 08:46:37;;;;;;;11.63;10.53;;;;;;;;;;5056766;28;20450;-73
2021/01/30 08:49:12;;;;;;;9.85;8.85;;;;;;;;;;5057610;28;20053;-74
2021/01/30 08:51:37;;;;;;;10.68;9.57;;;;;;;;;;5056576;28;20120;-73
2021/01/30 08:54:21;;;;;;;10.97;9.70;;;;;;;;;;5056518;28;20099;-73
2021/01/30 08:56:48;;;;;;;10.93;9.13;;;;;;;;;;5056609;28;20330;-72
2021/01/30 08:59:32;;;;;;;11.05;9.80;;;;;;;;;;5057327;28;20149;-72
2021/01/30 09:01:57;;;;;;;12.13;10.85;;;;;;;;;;5056267;28;20029;-72
2021/01/30 09:04:45;;;;;;;11.97;10.77;;;;;;;;;;5038647;28;20099;-72
2021/01/30 09:07:29;;;;;;;12.70;10.73;;;;;;;;;;5047865;28;20342;-72
2021/01/30 09:10:12;;;;;;;11.93;10.73;;;;;;;;;;5055886;28;20037;-72
2021/01/30 09:12:50;;;;;;;15.38;11.35;;;;;;;;;;5056062;28;20495;-73
2021/01/30 09:15:35;;;;;;;13.52;12.13;;;;;;;;;;5056290;28;20024;-72
2021/01/30 09:18:02;;;;;;;13.50;12.10;;;;;;;;;;5055944;28;20037;-73
2021/01/30 09:20:29;;;;;;;14.13;12.73;;;;;;;;;;5055783;28;20025;-73
2021/01/30 09:22:57;;;;;;;13.10;11.80;;;;;;;;;;5055773;28;20027;-72
2021/01/30 09:25:34;;;;;;;13.02;11.63;;;;;;;;;;5055973;28;20076;-72
2021/01/30 09:28:10;;;;;;;13.57;11.98;;;;;;;;;;5055298;28;20021;-73
2021/01/30 09:30:43;;;;;;;14.30;12.90;;;;;;;;;;5055722;28;20024;-72
2021/01/30 09:33:11;;;;;;;14.15;12.35;;;;;;;;;;5055607;28;20432;-72
2021/01/30 09:35:38;;;;;;;12.77;11.48;;;;;;;;;;5055911;28;20053;-73
2021/01/30 09:38:16;;;;;;;12.82;11.52;;;;;;;;;;5055779;28;20037;-72
2021/01/30 09:40:41;;;;;;;11.75;10.35;;;;;;;;;;5042934;28;20104;-72
2021/01/30 09:43:10;;;;;;;13.23;11.87;;;;;;;;;;5060193;28;20104;-72
2021/01/30 09:45:36;;;;;;;12.70;10.80;;;;;;;;;;5138360;27;20008;-72
2021/01/30 09:48:07;;;;;;;12.25;10.95;;;;;;;;;;5138685;27;20015;-72
2021/01/30 09:50:34;;;;;;;12.23;10.98;;;;;;;;;;5138365;27;20023;-72
2021/01/30 09:53:04;;;;;;;11.60;9.98;;;;;;;;;;5118877;27;20023;-72
2021/01/30 09:55:32;;;;;;;12.85;11.50;;;;;;;;;;5138613;27;20019;-72
2021/01/30 09:57:58;;;;;;;12.40;11.00;;;;;;;;;;5138293;27;20103;-72
2021/01/30 10:00:37;;;;;;;11.82;10.20;;;;;;;;;;5138484;27;20064;-73
2021/01/30 10:03:03;;;;;;;10.70;9.60;;;;;;;;;;5114558;28;20045;-72
2021/01/30 10:05:29;;;;;;;10.93;9.77;;;;;;;;;;5117871;28;20061;-72
2021/01/30 10:07:54;;;;;;;12.40;10.37;;;;;;;;;;5117550;27;20015;-72
2021/01/30 10:10:22;;;;;;;10.90;9.80;;;;;;;;;;5117707;28;20020;-72
2021/01/30 10:12:51;;;;;;;11.35;10.13;;;;;;;;;;5114402;28;20645;-73
2021/01/30 10:15:30;;;;;;;11.20;9.40;;;;;;;;;;5105486;28;20020;-72
2021/01/30 10:18:00;;;;;;;10.45;9.05;;;;;;;;;;5116277;28;20024;-72
2021/01/30 10:20:40;;;;;;;10.43;9.43;;;;;;;;;;5117442;28;20091;-73
2021/01/30 10:23:07;;;;;;;12.57;10.65;;;;;;;;;;5116919;28;20056;-72
2021/01/30 10:25:32;;;;;;;10.50;9.38;;;;;;;;;;5116392;28;20409;-71
2021/01/30 10:28:05;;;;;;;12.67;10.63;;;;;;;;;;5116084;28;20028;-72
2021/01/30 10:30:31;;;;;;;12.30;10.32;;;;;;;;;;5117307;28;20015;-72
2021/01/30 10:32:56;;;;;;;11.53;10.27;;;;;;;;;;5117228;27;20103;-73
2021/01/30 10:35:24;;;;;;;9.47;8.43;;;;;;;;;;5115298;28;20124;-73
2021/01/30 10:37:55;;;;;;;10.18;9.07;;;;;;;;;;5116856;28;20331;-73
2021/01/30 10:40:32;;;;;;;10.45;9.45;;;;;;;;;;5116158;28;20085;-73
2021/01/30 10:42:58;;;;;;;9.70;8.80;;;;;;;;;;5116993;28;20026;-73
2021/01/30 10:45:24;;;;;;;;;;;;;;;;;;5115646;28;20104;-73
2021/01/30 10:47:51;;;;;;;10.02;8.88;;;;;;;;;;5117053;28;19934;-72
2021/01/30 10:50:20;;;;;;;9.82;8.93;;;;;;;;;;5116844;28;20016;-72
2021/01/30 10:52:45;;;;;;;10.50;9.40;;;;;;;;;;5116722;28;20024;-73
2021/01/30 10:55:29;;;;;;;9.80;8.80;;;;;;;;;;5115221;28;20056;-72
2021/01/30 10:58:10;;;;;;;10.13;9.13;;;;;;;;;;5116706;28;20008;-73
2021/01/30 11:00:35;;;;;;;9.23;8.32;;;;;;;;;;5116773;27;20102;-73
2021/01/30 11:03:20;;;;;;;9.03;8.13;;;;;;;;;;5127625;27;20118;-73
2021/01/30 11:05:45;;;;;;;8.55;7.72;;;;;;;;;;5136033;27;20128;-72
2021/01/30 11:08:11;;;;;;;9.10;8.20;;;;;;;;;;5104423;27;20095;-72
2021/01/30 11:10:48;;;;;;;9.93;8.80;;;;;;;;;;5137182;27;20007;-72
2021/01/30 11:13:19;;;;;;;9.57;8.65;;;;;;;;;;5118351;27;20031;-72
2021/01/30 11:15:45;;;;;;;9.48;8.50;;;;;;;;;;5136994;27;20015;-72
2021/01/30 11:18:13;;;;;;;8.63;7.77;;;;;;;;;;5135105;27;20434;-72
2021/01/30 11:20:40;;;;;;;9.43;8.43;;;;;;;;;;5137053;27;20272;-72
2021/01/30 11:23:05;;;;;;;8.05;7.25;;;;;;;;;;5136646;28;20118;-72
2021/01/30 11:25:37;;;;;;;8.23;7.43;;;;;;;;;;5136907;28;20066;-72
2021/01/30 11:28:03;;;;;;;9.18;7.45;;;;;;;;;;5135089;28;20080;-72
2021/01/30 11:30:28;;;;;;;8.15;7.35;;;;;;;;;;5143054;27;20363;-72
2021/01/30 11:33:00;;;;;;;7.40;6.70;;;;;;;;;;5136663;28;20038;-72
2021/01/30 11:35:28;;;;;;;8.75;7.22;;;;;;;;;;5122801;28;20526;-72
2021/01/30 11:38:04;;;;;;;6.85;6.10;;;;;;;;;;5135441;28;20027;-72
2021/01/30 11:40:30;;;;;;;6.85;6.15;;;;;;;;;;5136546;28;20050;-72
2021/01/30 11:42:55;;;;;;;6.65;5.72;;;;;;;;;;5136801;28;20054;-72
2021/01/30 11:45:20;;;;;;;6.67;5.53;;;;;;;;;;5136809;28;20018;-72
2021/01/30 11:47:48;;;;;;;8.23;6.13;;;;;;;;;;5136867;28;20404;-73
2021/01/30 11:50:13;;;;;;;6.13;5.45;;;;;;;;;;5133254;27;20077;-74
2021/01/30 11:52:38;;;;;;;5.83;5.23;;;;;;;;;;5140751;27;20404;-73
2021/01/30 11:55:04;;;;;;;7.40;6.00;;;;;;;;;;5140928;27;20084;-71
2021/01/30 11:57:29;;;;;;;6.20;5.33;;;;;;;;;;5140681;27;20015;-71
2021/01/30 11:59:55;;;;;;;6.97;5.03;;;;;;;;;;5132451;27;20423;-71
2021/01/30 12:02:30;;;;;;;5.47;4.97;;;;;;;;;;5134005;27;20047;-72
2021/01/30 12:04:56;;;;;;;5.00;4.55;;;;;;;;;;5140691;27;20412;-71
2021/01/30 12:07:21;;;;;;;6.07;5.47;;;;;;;;;;5140709;27;20060;-72
2021/01/30 12:09:46;;;;;;;7.13;5.00;;;;;;;;;;5138720;27;20018;-71
2021/01/30 12:12:18;;;;;;;5.60;5.00;;;;;;;;;;5140562;27;20337;-72
2021/01/30 12:14:43;;;;;;;5.25;4.75;;;;;;;;;;5140377;27;20050;-72
2021/01/30 12:17:12;;;;;;;6.20;5.20;;;;;;;;;;5140446;27;20047;-72
2021/01/30 12:19:37;;;;;;;6.28;5.60;;;;;;;;;;5140236;27;20050;-73
2021/01/30 12:22:02;;;;;;;6.40;5.80;;;;;;;;;;5138647;27;20066;-71
2021/01/30 12:24:27;;;;;;;5.67;5.17;;;;;;;;;;5140249;27;20400;-72
2021/01/30 12:26:58;;;;;;;6.50;5.77;;;;;;;;;;5140188;27;20022;-72
2021/01/30 12:29:23;;;;;;;6.30;5.70;;;;;;;;;;5140654;27;20016;-73
2021/01/30 12:31:49;;;;;;;5.77;5.17;;;;;;;;;;5133314;27;20022;-72
2021/01/30 12:34:14;;;;;;;7.27;5.77;;;;;;;;;;5129823;27;20023;-72
2021/01/30 12:36:39;;;;;;;6.57;5.97;;;;;;;;;;5131886;27;20401;-73
2021/01/30 12:39:05;;;;;;;7.67;6.60;;;;;;;;;;5115569;27;20035;-71
2021/01/30 12:41:30;;;;;;;8.30;6.80;;;;;;;;;;5139404;27;20084;-71
2021/01/30 12:43:55;;;;;;;7.17;5.87;;;;;;;;;;5125959;27;20299;-71
2021/01/30 12:46:23;;;;;;;7.20;5.97;;;;;;;;;;5124151;27;20397;-71
2021/01/30 12:48:48;;;;;;;6.57;5.80;;;;;;;;;;5118510;27;20102;-72
2021/01/30 12:51:15;;;;;;;6.30;5.70;;;;;;;;;;5136351;27;20098;-71
2021/01/30 12:53:41;;;;;;;6.75;6.05;;;;;;;;;;5137498;27;20019;-71
2021/01/30 12:56:06;;;;;;;6.37;5.77;;;;;;;;;;5133786;27;20020;-71
2021/01/30 12:58:32;;;;;;;6.77;6.07;;;;;;;;;;5139055;27;20303;-72
2021/01/30 13:00:57;;;;;;;;;;;;;;;;;;5138476;27;20022;-71
2021/01/30 13:03:23;;;;;;;6.07;5.40;;;;;;;;;;5136187;27;19924;-72
2021/01/30 13:05:49;;;;;;;7.67;5.37;;;;;;;;;;5137066;27;20021;-71
2021/01/30 13:08:15;;;;;;;5.45;4.45;;;;;;;;;;5120327;27;20107;-72
2021/01/30 13:10:40;;;;;;;4.82;4.32;;;;;;;;;;5136596;27;20016;-70
2021/01/30 13:13:06;;;;;;;4.50;4.07;;;;;;;;;;5138730;27;20022;-71
2021/01/30 13:15:31;;;;;;;4.80;4.30;;;;;;;;;;5116906;27;20088;-70
2021/01/30 13:17:57;;;;;;;5.18;4.22;;;;;;;;;;5111447;27;20339;-70
2021/01/30 13:20:23;;;;;;;16.23;5.17;;;;;;;;;;5132135;27;20027;-72
2021/01/30 13:22:51;;;;;;;5.03;4.53;;;;;;;;;;5125922;27;20020;-72
2021/01/30 13:25:17;;;;;;;5.22;4.68;;;;;;;;;;5135378;27;20034;-71
2021/01/30 13:27:45;;;;;;;4.50;3.90;;;;;;;;;;5134073;27;20146;-71
2021/01/30 13:30:13;;;;;;;4.93;4.07;;;;;;;;;;5131404;27;20019;-71
2021/01/30 13:32:38;;;;;;;6.03;4.25;;;;;;;;;;5129011;27;20043;-71
2021/01/30 13:35:04;;;;;;;4.90;3.87;;;;;;;;;;5127772;27;20046;-71
2021/01/30 13:37:30;;;;;;;4.95;3.85;;;;;;;;;;5113019;27;20019;-71
2021/01/30 13:39:55;;;;;;;4.55;3.67;;;;;;;;;;5127284;27;20015;-71
2021/01/30 13:42:23;;;;;;;5.27;4.13;;;;;;;;;;5132324;27;20023;-71
2021/01/30 13:44:48;;;;;;;4.70;4.05;;;;;;;;;;5126516;27;20016;-71
2021/01/30 13:47:14;;;;;;;4.43;4.03;;;;;;;;;;5111266;27;20027;-71
2021/01/30 13:49:39;;;;;;;4.57;4.17;;;;;;;;;;5132092;27;20033;-71
2021/01/30 13:52:04;;;;;;;5.63;4.47;;;;;;;;;;5138722;27;20015;-72
2021/01/30 13:54:30;;;;;;;5.43;4.67;;;;;;;;;;5138459;27;20455;-71
2021/01/30 13:56:55;;;;;;;6.47;4.87;;;;;;;;;;5136869;27;20015;-71
2021/01/30 13:59:20;;;;;;;6.43;5.40;;;;;;;;;;5138485;27;20102;-71
2021/01/30 14:01:45;;;;;;;6.53;5.67;;;;;;;;;;5138322;27;20019;-71
2021/01/30 14:04:10;;;;;;;7.63;5.77;;;;;;;;;;5138109;27;20039;-71
2021/01/30 14:06:36;;;;;;;6.37;5.33;;;;;;;;;;5138501;27;20168;-71
2021/01/30 14:09:03;;;;;;;7.30;5.10;;;;;;;;;;5136928;27;20464;-71
2021/01/30 14:11:28;;;;;;;6.47;5.82;;;;;;;;;;5138057;27;20012;-71
2021/01/30 14:13:53;;;;;;;6.33;5.73;;;;;;;;;;5138111;27;20324;-71
2021/01/30 14:16:18;;;;;;;6.87;5.77;;;;;;;;;;5119826;27;20018;-71
2021/01/30 14:18:46;;;;;;;6.57;5.77;;;;;;;;;;5128183;27;20012;-72
2021/01/30 14:21:18;;;;;;;6.72;5.50;;;;;;;;;;5132966;27;20088;-71
2021/01/30 14:23:43;;;;;;;5.68;5.07;;;;;;;;;;5138281;27;20023;-71
2021/01/30 14:26:08;;;;;;;5.73;5.00;;;;;;;;;;5138099;27;20280;-73
2021/01/30 14:28:34;;;;;;;6.50;5.30;;;;;;;;;;5136095;27;20308;-71
2021/01/30 14:30:59;;;;;;;7.20;5.90;;;;;;;;;;5138010;27;20046;-71
2021/01/30 14:33:24;;;;;;;5.80;5.20;;;;;;;;;;5137727;27;20310;-71
2021/01/30 14:35:50;;;;;;;6.13;5.50;;;;;;;;;;5137926;27;20023;-71
2021/01/30 14:38:15;;;;;;;6.40;5.65;;;;;;;;;;5137514;27;20019;-71
2021/01/30 14:40:44;;;;;;;6.07;5.47;;;;;;;;;;5136026;27;20011;-71
2021/01/30 14:43:10;;;;;;;6.28;5.68;;;;;;;;;;5137694;27;20023;-71